sensor_id;sensor_type;location;lat;lon;timestamp;temperature;humidity
30206;DHT22;17010;51.306;3.150;2023-02-01T00:02:00;7.00;99.90
30206;DHT22;17010;51.306;3.150;2023-02-01T00:04:27;7.00;99.90
30206;DHT22;17010;51.306;3.150;2023-02-01T00:06:53;7.00;99.90
30206;DHT22;17010;51.306;3.150;2023-02-01T00:09:19;7.00;99.90
30206;DHT22;17010;51.306;3.150;2023-02-01T00:11:46;6.90;99.90
30206;DHT22;17010;51.306;3.150;2023-02-01T00:14:12;7.00;99.90
30206;DHT22;17010;51.306;3.150;2023-02-01T00:16:39;6.90;99.90
30206;DHT22;17010;51.306;3.150;2023-02-01T00:19:15;7.00;99.90
30206;DHT22;17010;51.306;3.150;2023-02-01T00:21:41;7.00;99.90
30206;DHT22;17010;51.306;3.150;2023-02-01T00:24:09;7.00;99.90
30206;DHT22;17010;51.306;3.150;2023-02-01T00:26:43;7.00;99.90
30206;DHT22;17010;51.306;3.150;2023-02-01T00:29:12;7.00;99.90
30206;DHT22;17010;51.306;3.150;2023-02-01T00:31:39;6.90;99.90
30206;DHT22;17010;51.306;3.150;2023-02-01T00:34:05;6.90;99.90
30206;DHT22;17010;51.306;3.150;2023-02-01T00:36:31;7.00;99.90
30206;DHT22;17010;51.306;3.150;2023-02-01T00:38:58;6.90;99.90
30206;DHT22;17010;51.306;3.150;2023-02-01T00:41:24;7.00;99.90
30206;DHT22;17010;51.306;3.150;2023-02-01T00:43:50;7.00;99.90
30206;DHT22;17010;51.306;3.150;2023-02-01T00:46:18;6.90;99.90
30206;DHT22;17010;51.306;3.150;2023-02-01T00:48:45;7.00;99.90
30206;DHT22;17010;51.306;3.150;2023-02-01T00:51:14;7.00;99.90
30206;DHT22;17010;51.306;3.150;2023-02-01T00:53:40;7.00;99.90
30206;DHT22;17010;51.306;3.150;2023-02-01T00:56:07;7.00;99.90
30206;DHT22;17010;51.306;3.150;2023-02-01T00:58:33;7.00;99.90
30206;DHT22;17010;51.306;3.150;2023-02-01T01:01:06;7.00;99.90
30206;DHT22;17010;51.306;3.150;2023-02-01T01:03:35;7.00;99.90
30206;DHT22;17010;51.306;3.150;2023-02-01T01:06:04;7.00;99.90
30206;DHT22;17010;51.306;3.150;2023-02-01T01:08:30;7.00;99.90
30206;DHT22;17010;51.306;3.150;2023-02-01T01:10:56;7.00;99.90
30206;DHT22;17010;51.306;3.150;2023-02-01T01:13:23;7.00;99.90
30206;DHT22;17010;51.306;3.150;2023-02-01T01:15:49;7.00;99.90
30206;DHT22;17010;51.306;3.150;2023-02-01T01:18:15;7.00;99.90
30206;DHT22;17010;51.306;3.150;2023-02-01T01:20:41;7.00;99.90
30206;DHT22;17010;51.306;3.150;2023-02-01T01:23:08;7.00;99.90
30206;DHT22;17010;51.306;3.150;2023-02-01T01:25:38;7.00;99.90
30206;DHT22;17010;51.306;3.150;2023-02-01T01:28:05;7.00;99.90
30206;DHT22;17010;51.306;3.150;2023-02-01T01:30:33;7.00;99.90
30206;DHT22;17010;51.306;3.150;2023-02-01T01:33:00;7.10;99.90
30206;DHT22;17010;51.306;3.150;2023-02-01T01:35:28;7.10;99.90
30206;DHT22;17010;51.306;3.150;2023-02-01T01:37:55;7.10;99.90
30206;DHT22;17010;51.306;3.150;2023-02-01T01:40:21;7.00;99.90
30206;DHT22;17010;51.306;3.150;2023-02-01T01:42:47;7.00;99.90
30206;DHT22;17010;51.306;3.150;2023-02-01T01:47:57;7.00;99.90
30206;DHT22;17010;51.306;3.150;2023-02-01T01:53:06;6.90;99.90
30206;DHT22;17010;51.306;3.150;2023-02-01T01:55:37;7.00;99.90
30206;DHT22;17010;51.306;3.150;2023-02-01T01:58:14;6.90;99.90
30206;DHT22;17010;51.306;3.150;2023-02-01T02:00:42;6.90;99.90
30206;DHT22;17010;51.306;3.150;2023-02-01T02:03:27;6.90;99.90
30206;DHT22;17010;51.306;3.150;2023-02-01T02:05:58;6.90;99.90
30206;DHT22;17010;51.306;3.150;2023-02-01T02:08:25;6.90;99.90
30206;DHT22;17010;51.306;3.150;2023-02-01T02:10:53;6.90;99.90
30206;DHT22;17010;51.306;3.150;2023-02-01T02:13:39;6.90;99.90
30206;DHT22;17010;51.306;3.150;2023-02-01T02:16:18;6.90;99.90
30206;DHT22;17010;51.306;3.150;2023-02-01T02:32:47;6.80;99.90
30206;DHT22;17010;51.306;3.150;2023-02-01T02:38:33;6.80;99.90
30206;DHT22;17010;51.306;3.150;2023-02-01T02:44:48;6.80;99.90
30206;DHT22;17010;51.306;3.150;2023-02-01T02:48:06;6.80;99.90
30206;DHT22;17010;51.306;3.150;2023-02-01T02:50:36;6.80;99.90
30206;DHT22;17010;51.306;3.150;2023-02-01T02:53:34;6.80;99.90
30206;DHT22;17010;51.306;3.150;2023-02-01T02:56:21;6.90;99.90
30206;DHT22;17010;51.306;3.150;2023-02-01T02:59:08;6.90;99.90
30206;DHT22;17010;51.306;3.150;2023-02-01T03:01:53;6.90;99.90
30206;DHT22;17010;51.306;3.150;2023-02-01T03:04:38;6.90;99.90
30206;DHT22;17010;51.306;3.150;2023-02-01T03:10:10;6.80;99.90
30206;DHT22;17010;51.306;3.150;2023-02-01T03:12:37;6.80;99.90
30206;DHT22;17010;51.306;3.150;2023-02-01T03:15:36;6.80;99.90
30206;DHT22;17010;51.306;3.150;2023-02-01T03:18:08;6.90;99.90
30206;DHT22;17010;51.306;3.150;2023-02-01T03:20:37;6.80;99.90
30206;DHT22;17010;51.306;3.150;2023-02-01T03:23:05;6.70;99.90
30206;DHT22;17010;51.306;3.150;2023-02-01T03:25:32;6.70;99.90
30206;DHT22;17010;51.306;3.150;2023-02-01T03:28:02;6.70;99.90
30206;DHT22;17010;51.306;3.150;2023-02-01T03:30:31;6.70;99.90
30206;DHT22;17010;51.306;3.150;2023-02-01T03:33:00;6.70;99.90
30206;DHT22;17010;51.306;3.150;2023-02-01T03:35:33;6.70;99.90
30206;DHT22;17010;51.306;3.150;2023-02-01T03:38:32;6.70;99.90
30206;DHT22;17010;51.306;3.150;2023-02-01T03:43:34;6.60;99.90
30206;DHT22;17010;51.306;3.150;2023-02-01T03:46:04;6.60;99.90
30206;DHT22;17010;51.306;3.150;2023-02-01T03:48:32;6.60;99.90
30206;DHT22;17010;51.306;3.150;2023-02-01T03:51:00;6.60;99.90
30206;DHT22;17010;51.306;3.150;2023-02-01T03:53:27;6.70;99.90
30206;DHT22;17010;51.306;3.150;2023-02-01T03:55:54;6.70;99.90
30206;DHT22;17010;51.306;3.150;2023-02-01T03:58:22;6.60;99.90
30206;DHT22;17010;51.306;3.150;2023-02-01T04:00:58;6.70;99.90
30206;DHT22;17010;51.306;3.150;2023-02-01T04:03:25;6.70;99.90
30206;DHT22;17010;51.306;3.150;2023-02-01T04:05:52;6.70;99.90
30206;DHT22;17010;51.306;3.150;2023-02-01T04:08:19;6.70;99.90
30206;DHT22;17010;51.306;3.150;2023-02-01T04:10:46;6.70;99.90
30206;DHT22;17010;51.306;3.150;2023-02-01T04:13:12;6.70;99.90
30206;DHT22;17010;51.306;3.150;2023-02-01T04:15:39;6.70;99.90
30206;DHT22;17010;51.306;3.150;2023-02-01T04:18:05;6.70;99.90
30206;DHT22;17010;51.306;3.150;2023-02-01T04:20:31;6.80;99.90
30206;DHT22;17010;51.306;3.150;2023-02-01T04:22:57;6.80;99.90
30206;DHT22;17010;51.306;3.150;2023-02-01T04:25:23;6.80;99.90
30206;DHT22;17010;51.306;3.150;2023-02-01T04:27:49;6.80;99.90
30206;DHT22;17010;51.306;3.150;2023-02-01T04:30:16;6.80;99.90
30206;DHT22;17010;51.306;3.150;2023-02-01T04:32:42;6.70;99.90
30206;DHT22;17010;51.306;3.150;2023-02-01T04:35:09;6.70;99.90
30206;DHT22;17010;51.306;3.150;2023-02-01T04:37:35;6.80;99.90
30206;DHT22;17010;51.306;3.150;2023-02-01T04:40:01;6.70;99.90
30206;DHT22;17010;51.306;3.150;2023-02-01T04:42:29;6.70;99.90
30206;DHT22;17010;51.306;3.150;2023-02-01T04:44:56;6.70;99.90
30206;DHT22;17010;51.306;3.150;2023-02-01T04:47:22;6.70;99.90
30206;DHT22;17010;51.306;3.150;2023-02-01T04:49:48;6.70;99.90
30206;DHT22;17010;51.306;3.150;2023-02-01T04:52:14;6.70;99.90
30206;DHT22;17010;51.306;3.150;2023-02-01T04:54:40;6.70;99.90
30206;DHT22;17010;51.306;3.150;2023-02-01T04:57:06;6.80;99.90
30206;DHT22;17010;51.306;3.150;2023-02-01T04:59:33;6.80;99.90
30206;DHT22;17010;51.306;3.150;2023-02-01T05:01:59;6.80;99.90
30206;DHT22;17010;51.306;3.150;2023-02-01T05:04:25;6.80;99.90
30206;DHT22;17010;51.306;3.150;2023-02-01T05:06:51;6.80;99.90
30206;DHT22;17010;51.306;3.150;2023-02-01T05:09:17;6.80;99.90
30206;DHT22;17010;51.306;3.150;2023-02-01T05:11:44;6.80;99.90
30206;DHT22;17010;51.306;3.150;2023-02-01T05:14:28;6.80;99.90
30206;DHT22;17010;51.306;3.150;2023-02-01T05:16:54;6.80;99.90
30206;DHT22;17010;51.306;3.150;2023-02-01T05:19:20;6.80;99.90
30206;DHT22;17010;51.306;3.150;2023-02-01T05:21:46;6.80;99.90
30206;DHT22;17010;51.306;3.150;2023-02-01T05:24:13;6.80;99.90
30206;DHT22;17010;51.306;3.150;2023-02-01T05:26:40;6.80;99.90
30206;DHT22;17010;51.306;3.150;2023-02-01T05:29:06;6.90;99.90
30206;DHT22;17010;51.306;3.150;2023-02-01T05:31:33;6.80;99.90
30206;DHT22;17010;51.306;3.150;2023-02-01T05:33:59;6.80;99.90
30206;DHT22;17010;51.306;3.150;2023-02-01T05:36:26;6.80;99.90
30206;DHT22;17010;51.306;3.150;2023-02-01T05:38:52;6.70;99.90
30206;DHT22;17010;51.306;3.150;2023-02-01T05:41:18;6.70;99.90
30206;DHT22;17010;51.306;3.150;2023-02-01T05:43:44;6.70;99.90
30206;DHT22;17010;51.306;3.150;2023-02-01T05:46:10;6.70;99.90
30206;DHT22;17010;51.306;3.150;2023-02-01T05:48:41;6.70;99.90
30206;DHT22;17010;51.306;3.150;2023-02-01T05:51:08;6.70;99.90
30206;DHT22;17010;51.306;3.150;2023-02-01T05:53:35;6.70;99.90
30206;DHT22;17010;51.306;3.150;2023-02-01T05:56:01;6.70;99.90
30206;DHT22;17010;51.306;3.150;2023-02-01T05:58:27;6.70;99.90
30206;DHT22;17010;51.306;3.150;2023-02-01T06:00:53;6.80;99.90
30206;DHT22;17010;51.306;3.150;2023-02-01T06:03:19;6.70;99.90
30206;DHT22;17010;51.306;3.150;2023-02-01T06:05:47;6.80;99.90
30206;DHT22;17010;51.306;3.150;2023-02-01T06:08:13;6.70;99.90
30206;DHT22;17010;51.306;3.150;2023-02-01T06:10:40;6.70;99.90
30206;DHT22;17010;51.306;3.150;2023-02-01T06:13:06;6.80;99.90
30206;DHT22;17010;51.306;3.150;2023-02-01T06:15:32;6.80;99.90
30206;DHT22;17010;51.306;3.150;2023-02-01T06:17:58;6.70;99.90
30206;DHT22;17010;51.306;3.150;2023-02-01T06:20:24;6.70;99.90
30206;DHT22;17010;51.306;3.150;2023-02-01T06:22:50;6.70;99.90
30206;DHT22;17010;51.306;3.150;2023-02-01T06:25:18;6.70;99.90
30206;DHT22;17010;51.306;3.150;2023-02-01T06:27:45;6.80;99.90
30206;DHT22;17010;51.306;3.150;2023-02-01T06:30:11;6.80;99.90
30206;DHT22;17010;51.306;3.150;2023-02-01T06:32:41;6.80;99.90
30206;DHT22;17010;51.306;3.150;2023-02-01T06:35:08;6.80;99.90
30206;DHT22;17010;51.306;3.150;2023-02-01T06:37:37;6.80;99.90
30206;DHT22;17010;51.306;3.150;2023-02-01T06:40:04;6.90;99.90
30206;DHT22;17010;51.306;3.150;2023-02-01T06:42:30;6.90;99.90
30206;DHT22;17010;51.306;3.150;2023-02-01T06:44:56;6.80;99.90
30206;DHT22;17010;51.306;3.150;2023-02-01T06:47:22;6.80;99.90
30206;DHT22;17010;51.306;3.150;2023-02-01T06:49:48;6.90;99.90
30206;DHT22;17010;51.306;3.150;2023-02-01T06:52:15;6.90;99.90
30206;DHT22;17010;51.306;3.150;2023-02-01T06:54:41;6.90;99.90
30206;DHT22;17010;51.306;3.150;2023-02-01T06:57:07;6.90;99.90
30206;DHT22;17010;51.306;3.150;2023-02-01T06:59:33;6.90;99.90
30206;DHT22;17010;51.306;3.150;2023-02-01T07:01:59;6.90;99.90
30206;DHT22;17010;51.306;3.150;2023-02-01T07:04:25;7.00;99.90
30206;DHT22;17010;51.306;3.150;2023-02-01T07:06:51;6.90;99.90
30206;DHT22;17010;51.306;3.150;2023-02-01T07:09:17;7.00;99.90
30206;DHT22;17010;51.306;3.150;2023-02-01T07:11:43;6.90;99.90
30206;DHT22;17010;51.306;3.150;2023-02-01T07:14:10;7.00;99.90
30206;DHT22;17010;51.306;3.150;2023-02-01T07:16:37;7.00;99.90
30206;DHT22;17010;51.306;3.150;2023-02-01T07:19:03;7.00;99.90
30206;DHT22;17010;51.306;3.150;2023-02-01T07:21:29;7.00;99.90
30206;DHT22;17010;51.306;3.150;2023-02-01T07:23:55;7.00;99.90
30206;DHT22;17010;51.306;3.150;2023-02-01T07:26:21;7.00;99.90
30206;DHT22;17010;51.306;3.150;2023-02-01T07:28:48;7.00;99.90
30206;DHT22;17010;51.306;3.150;2023-02-01T07:31:16;7.00;99.90
30206;DHT22;17010;51.306;3.150;2023-02-01T07:33:44;7.10;99.90
30206;DHT22;17010;51.306;3.150;2023-02-01T07:36:12;7.10;99.90
30206;DHT22;17010;51.306;3.150;2023-02-01T07:38:39;7.10;99.90
30206;DHT22;17010;51.306;3.150;2023-02-01T07:41:05;7.10;99.90
30206;DHT22;17010;51.306;3.150;2023-02-01T07:43:32;7.10;99.90
30206;DHT22;17010;51.306;3.150;2023-02-01T07:46:02;7.10;99.90
30206;DHT22;17010;51.306;3.150;2023-02-01T07:48:30;7.10;99.90
30206;DHT22;17010;51.306;3.150;2023-02-01T07:51:09;7.20;99.90
30206;DHT22;17010;51.306;3.150;2023-02-01T07:53:35;7.10;99.90
30206;DHT22;17010;51.306;3.150;2023-02-01T07:56:02;7.20;99.90
30206;DHT22;17010;51.306;3.150;2023-02-01T07:58:29;7.20;99.90
30206;DHT22;17010;51.306;3.150;2023-02-01T08:00:55;7.30;99.90
30206;DHT22;17010;51.306;3.150;2023-02-01T08:03:40;7.30;99.90
30206;DHT22;17010;51.306;3.150;2023-02-01T08:06:06;7.30;99.90
30206;DHT22;17010;51.306;3.150;2023-02-01T08:08:33;7.30;99.90
30206;DHT22;17010;51.306;3.150;2023-02-01T08:11:00;7.30;99.90
30206;DHT22;17010;51.306;3.150;2023-02-01T08:13:26;7.30;99.90
30206;DHT22;17010;51.306;3.150;2023-02-01T08:15:52;7.40;99.90
30206;DHT22;17010;51.306;3.150;2023-02-01T08:18:18;7.40;99.90
30206;DHT22;17010;51.306;3.150;2023-02-01T08:20:44;7.50;99.90
30206;DHT22;17010;51.306;3.150;2023-02-01T08:23:13;7.50;99.90
30206;DHT22;17010;51.306;3.150;2023-02-01T08:25:40;7.50;99.90
30206;DHT22;17010;51.306;3.150;2023-02-01T08:28:06;7.60;99.90
30206;DHT22;17010;51.306;3.150;2023-02-01T08:30:33;7.60;99.90
30206;DHT22;17010;51.306;3.150;2023-02-01T08:32:59;7.50;99.90
30206;DHT22;17010;51.306;3.150;2023-02-01T08:35:26;7.60;99.90
30206;DHT22;17010;51.306;3.150;2023-02-01T08:37:53;7.60;99.90
30206;DHT22;17010;51.306;3.150;2023-02-01T08:40:19;7.60;99.90
30206;DHT22;17010;51.306;3.150;2023-02-01T08:42:47;7.70;99.90
30206;DHT22;17010;51.306;3.150;2023-02-01T08:45:22;7.70;99.90
30206;DHT22;17010;51.306;3.150;2023-02-01T08:47:50;7.80;99.90
30206;DHT22;17010;51.306;3.150;2023-02-01T08:50:17;7.90;99.90
30206;DHT22;17010;51.306;3.150;2023-02-01T08:52:43;7.80;99.90
30206;DHT22;17010;51.306;3.150;2023-02-01T08:55:10;7.90;99.90
30206;DHT22;17010;51.306;3.150;2023-02-01T08:57:36;7.90;99.90
30206;DHT22;17010;51.306;3.150;2023-02-01T09:00:04;8.00;99.90
30206;DHT22;17010;51.306;3.150;2023-02-01T09:02:31;8.00;99.90
30206;DHT22;17010;51.306;3.150;2023-02-01T09:04:58;8.00;99.90
30206;DHT22;17010;51.306;3.150;2023-02-01T09:07:24;8.00;99.90
30206;DHT22;17010;51.306;3.150;2023-02-01T09:09:50;8.00;99.90
30206;DHT22;17010;51.306;3.150;2023-02-01T09:12:16;7.90;99.90
30206;DHT22;17010;51.306;3.150;2023-02-01T09:14:42;7.90;99.90
30206;DHT22;17010;51.306;3.150;2023-02-01T09:17:09;8.00;99.90
30206;DHT22;17010;51.306;3.150;2023-02-01T09:19:35;8.00;99.90
30206;DHT22;17010;51.306;3.150;2023-02-01T09:22:01;8.10;99.90
30206;DHT22;17010;51.306;3.150;2023-02-01T09:24:27;8.30;99.90
30206;DHT22;17010;51.306;3.150;2023-02-01T09:26:53;8.30;99.90
30206;DHT22;17010;51.306;3.150;2023-02-01T09:29:20;8.40;99.90
30206;DHT22;17010;51.306;3.150;2023-02-01T09:31:46;8.50;99.90
30206;DHT22;17010;51.306;3.150;2023-02-01T09:34:12;8.50;99.90
30206;DHT22;17010;51.306;3.150;2023-02-01T09:36:38;8.60;99.90
30206;DHT22;17010;51.306;3.150;2023-02-01T09:39:04;8.70;99.90
30206;DHT22;17010;51.306;3.150;2023-02-01T09:47:03;8.80;99.90
30206;DHT22;17010;51.306;3.150;2023-02-01T09:49:33;8.70;99.90
30206;DHT22;17010;51.306;3.150;2023-02-01T09:52:04;8.70;99.90
30206;DHT22;17010;51.306;3.150;2023-02-01T09:54:42;8.70;99.90
30206;DHT22;17010;51.306;3.150;2023-02-01T09:57:18;8.70;99.90
30206;DHT22;17010;51.306;3.150;2023-02-01T09:59:52;8.70;99.90
30206;DHT22;17010;51.306;3.150;2023-02-01T10:02:25;8.80;99.90
30206;DHT22;17010;51.306;3.150;2023-02-01T10:04:55;8.90;99.90
30206;DHT22;17010;51.306;3.150;2023-02-01T10:28:39;9.40;99.90
30206;DHT22;17010;51.306;3.150;2023-02-01T10:31:05;9.50;99.90
30206;DHT22;17010;51.306;3.150;2023-02-01T10:33:44;9.40;99.90
30206;DHT22;17010;51.306;3.150;2023-02-01T10:36:27;9.50;99.90
30206;DHT22;17010;51.306;3.150;2023-02-01T10:38:55;9.50;99.90
30206;DHT22;17010;51.306;3.150;2023-02-01T10:41:22;9.60;99.90
30206;DHT22;17010;51.306;3.150;2023-02-01T10:43:54;9.50;99.90
30206;DHT22;17010;51.306;3.150;2023-02-01T10:46:22;9.40;99.90
30206;DHT22;17010;51.306;3.150;2023-02-01T10:48:49;9.50;99.90
30206;DHT22;17010;51.306;3.150;2023-02-01T10:51:25;9.50;99.90
30206;DHT22;17010;51.306;3.150;2023-02-01T10:53:59;9.50;99.90
30206;DHT22;17010;51.306;3.150;2023-02-01T10:56:27;9.40;99.90
30206;DHT22;17010;51.306;3.150;2023-02-01T10:59:15;9.40;99.90
30206;DHT22;17010;51.306;3.150;2023-02-01T11:01:43;9.40;99.90
30206;DHT22;17010;51.306;3.150;2023-02-01T11:04:18;9.40;99.90
30206;DHT22;17010;51.306;3.150;2023-02-01T11:06:47;9.50;99.90
30206;DHT22;17010;51.306;3.150;2023-02-01T11:16:59;9.60;99.90
30206;DHT22;17010;51.306;3.150;2023-02-01T11:19:26;9.50;99.90
30206;DHT22;17010;51.306;3.150;2023-02-01T11:21:54;9.50;99.90
30206;DHT22;17010;51.306;3.150;2023-02-01T11:24:29;9.40;99.90
30206;DHT22;17010;51.306;3.150;2023-02-01T11:26:59;9.50;99.90
30206;DHT22;17010;51.306;3.150;2023-02-01T11:29:25;9.50;99.90
30206;DHT22;17010;51.306;3.150;2023-02-01T11:31:57;9.40;99.90
30206;DHT22;17010;51.306;3.150;2023-02-01T11:34:36;9.40;99.90
30206;DHT22;17010;51.306;3.150;2023-02-01T11:37:02;9.50;99.90
30206;DHT22;17010;51.306;3.150;2023-02-01T11:39:30;9.60;99.90
30206;DHT22;17010;51.306;3.150;2023-02-01T11:47:24;9.70;99.90
30206;DHT22;17010;51.306;3.150;2023-02-01T11:49:58;9.80;99.90
30206;DHT22;17010;51.306;3.150;2023-02-01T11:58:20;9.60;99.90
30206;DHT22;17010;51.306;3.150;2023-02-01T12:04:37;9.70;99.90
30206;DHT22;17010;51.306;3.150;2023-02-01T12:06:53;9.70;99.90
30206;DHT22;17010;51.306;3.150;2023-02-01T12:12:17;9.70;99.90
30206;DHT22;17010;51.306;3.150;2023-02-01T12:17:27;9.90;99.90
30206;DHT22;17010;51.306;3.150;2023-02-01T12:20:26;10.00;99.90
30206;DHT22;17010;51.306;3.150;2023-02-01T12:29:13;10.10;99.90
30206;DHT22;17010;51.306;3.150;2023-02-01T12:38:06;10.00;99.90
30206;DHT22;17010;51.306;3.150;2023-02-01T12:40:20;10.00;99.90
30206;DHT22;17010;51.306;3.150;2023-02-01T12:44:03;10.00;99.90
30206;DHT22;17010;51.306;3.150;2023-02-01T12:46:05;10.00;99.90
30206;DHT22;17010;51.306;3.150;2023-02-01T12:51:33;10.00;99.90
30206;DHT22;17010;51.306;3.150;2023-02-01T12:54:22;9.80;99.90
30206;DHT22;17010;51.306;3.150;2023-02-01T12:56:53;9.70;99.90
30206;DHT22;17010;51.306;3.150;2023-02-01T12:59:28;9.50;99.90
30206;DHT22;17010;51.306;3.150;2023-02-01T13:02:08;9.30;99.90
30206;DHT22;17010;51.306;3.150;2023-02-01T13:04:48;9.40;99.90
30206;DHT22;17010;51.306;3.150;2023-02-01T13:10:38;9.50;99.90
30206;DHT22;17010;51.306;3.150;2023-02-01T13:15:55;9.50;99.90
30206;DHT22;17010;51.306;3.150;2023-02-01T13:18:23;9.40;99.90
30206;DHT22;17010;51.306;3.150;2023-02-01T13:21:02;9.30;99.90
30206;DHT22;17010;51.306;3.150;2023-02-01T13:23:40;9.10;99.90
30206;DHT22;17010;51.306;3.150;2023-02-01T13:26:06;9.00;99.90
30206;DHT22;17010;51.306;3.150;2023-02-01T13:28:45;9.00;99.90
30206;DHT22;17010;51.306;3.150;2023-02-01T13:39:43;9.20;99.90
30206;DHT22;17010;51.306;3.150;2023-02-01T13:42:15;9.20;99.90
30206;DHT22;17010;51.306;3.150;2023-02-01T13:45:01;9.20;99.90
30206;DHT22;17010;51.306;3.150;2023-02-01T13:47:44;9.20;99.90
30206;DHT22;17010;51.306;3.150;2023-02-01T13:50:36;9.20;99.90
30206;DHT22;17010;51.306;3.150;2023-02-01T13:55:39;9.30;99.90
30206;DHT22;17010;51.306;3.150;2023-02-01T13:58:14;9.30;99.90
30206;DHT22;17010;51.306;3.150;2023-02-01T14:00:42;9.30;99.90
30206;DHT22;17010;51.306;3.150;2023-02-01T14:03:14;9.30;99.90
30206;DHT22;17010;51.306;3.150;2023-02-01T14:11:30;9.20;99.90
30206;DHT22;17010;51.306;3.150;2023-02-01T14:13:54;9.10;99.90
30206;DHT22;17010;51.306;3.150;2023-02-01T14:16:20;9.10;99.90
30206;DHT22;17010;51.306;3.150;2023-02-01T14:18:49;9.10;99.90
30206;DHT22;17010;51.306;3.150;2023-02-01T14:21:30;9.10;99.90
30206;DHT22;17010;51.306;3.150;2023-02-01T14:24:00;9.00;99.90
30206;DHT22;17010;51.306;3.150;2023-02-01T14:31:48;9.00;99.90
30206;DHT22;17010;51.306;3.150;2023-02-01T14:34:37;8.90;99.90
30206;DHT22;17010;51.306;3.150;2023-02-01T14:37:32;9.00;99.90
30206;DHT22;17010;51.306;3.150;2023-02-01T14:40:04;8.90;99.90
30206;DHT22;17010;51.306;3.150;2023-02-01T14:42:38;8.90;99.90
30206;DHT22;17010;51.306;3.150;2023-02-01T14:47:48;9.00;99.90
30206;DHT22;17010;51.306;3.150;2023-02-01T14:58:55;8.90;99.90
30206;DHT22;17010;51.306;3.150;2023-02-01T15:01:34;8.80;99.90
30206;DHT22;17010;51.306;3.150;2023-02-01T15:04:04;8.90;99.90
30206;DHT22;17010;51.306;3.150;2023-02-01T15:09:58;8.90;99.90
30206;DHT22;17010;51.306;3.150;2023-02-01T15:14:41;8.80;99.90
30206;DHT22;17010;51.306;3.150;2023-02-01T15:17:26;8.80;99.90
30206;DHT22;17010;51.306;3.150;2023-02-01T15:20:03;8.80;99.90
30206;DHT22;17010;51.306;3.150;2023-02-01T15:22:37;8.80;99.90
30206;DHT22;17010;51.306;3.150;2023-02-01T15:25:03;8.80;99.90
30206;DHT22;17010;51.306;3.150;2023-02-01T15:27:31;8.80;99.90
30206;DHT22;17010;51.306;3.150;2023-02-01T15:30:07;8.70;99.90
30206;DHT22;17010;51.306;3.150;2023-02-01T15:32:37;8.70;99.90
30206;DHT22;17010;51.306;3.150;2023-02-01T15:35:37;8.70;99.90
30206;DHT22;17010;51.306;3.150;2023-02-01T15:38:24;8.60;99.90
30206;DHT22;17010;51.306;3.150;2023-02-01T15:41:03;8.60;99.90
30206;DHT22;17010;51.306;3.150;2023-02-01T15:43:31;8.60;99.90
30206;DHT22;17010;51.306;3.150;2023-02-01T15:46:03;8.60;99.90
30206;DHT22;17010;51.306;3.150;2023-02-01T15:48:47;8.60;99.90
30206;DHT22;17010;51.306;3.150;2023-02-01T15:51:20;8.70;99.90
30206;DHT22;17010;51.306;3.150;2023-02-01T15:53:50;8.70;99.90
30206;DHT22;17010;51.306;3.150;2023-02-01T15:56:21;8.70;99.90
30206;DHT22;17010;51.306;3.150;2023-02-01T15:58:50;8.60;99.90
30206;DHT22;17010;51.306;3.150;2023-02-01T16:01:17;8.60;99.90
30206;DHT22;17010;51.306;3.150;2023-02-01T16:03:45;8.60;99.90
30206;DHT22;17010;51.306;3.150;2023-02-01T16:06:30;8.60;99.90
30206;DHT22;17010;51.306;3.150;2023-02-01T16:11:31;8.50;99.90
30206;DHT22;17010;51.306;3.150;2023-02-01T16:13:58;8.50;99.90
30206;DHT22;17010;51.306;3.150;2023-02-01T16:16:26;8.50;99.90
30206;DHT22;17010;51.306;3.150;2023-02-01T16:18:52;8.50;99.90
30206;DHT22;17010;51.306;3.150;2023-02-01T16:21:19;8.40;99.90
30206;DHT22;17010;51.306;3.150;2023-02-01T16:23:52;8.40;99.90
30206;DHT22;17010;51.306;3.150;2023-02-01T16:26:19;8.40;99.90
30206;DHT22;17010;51.306;3.150;2023-02-01T16:28:45;8.40;99.90
30206;DHT22;17010;51.306;3.150;2023-02-01T16:31:13;8.50;99.90
30206;DHT22;17010;51.306;3.150;2023-02-01T16:33:50;8.40;99.90
30206;DHT22;17010;51.306;3.150;2023-02-01T16:36:17;8.40;99.90
30206;DHT22;17010;51.306;3.150;2023-02-01T16:38:44;8.40;99.90
30206;DHT22;17010;51.306;3.150;2023-02-01T16:41:13;8.40;99.90
30206;DHT22;17010;51.306;3.150;2023-02-01T16:43:40;8.50;99.90
30206;DHT22;17010;51.306;3.150;2023-02-01T16:46:13;8.50;99.90
30206;DHT22;17010;51.306;3.150;2023-02-01T16:48:41;8.40;99.90
30206;DHT22;17010;51.306;3.150;2023-02-01T16:51:09;8.40;99.90
30206;DHT22;17010;51.306;3.150;2023-02-01T16:53:36;8.50;99.90
30206;DHT22;17010;51.306;3.150;2023-02-01T16:56:11;8.50;99.90
30206;DHT22;17010;51.306;3.150;2023-02-01T16:58:38;8.50;99.90
30206;DHT22;17010;51.306;3.150;2023-02-01T17:01:07;8.50;99.90
30206;DHT22;17010;51.306;3.150;2023-02-01T17:03:33;8.50;99.90
30206;DHT22;17010;51.306;3.150;2023-02-01T17:05:59;8.60;99.90
30206;DHT22;17010;51.306;3.150;2023-02-01T17:08:33;8.60;99.90
30206;DHT22;17010;51.306;3.150;2023-02-01T17:11:00;8.60;99.90
30206;DHT22;17010;51.306;3.150;2023-02-01T17:13:26;8.60;99.90
30206;DHT22;17010;51.306;3.150;2023-02-01T17:16:05;8.60;99.90
30206;DHT22;17010;51.306;3.150;2023-02-01T17:18:33;8.60;99.90
30206;DHT22;17010;51.306;3.150;2023-02-01T17:21:01;8.50;99.90
30206;DHT22;17010;51.306;3.150;2023-02-01T17:23:29;8.50;99.90
30206;DHT22;17010;51.306;3.150;2023-02-01T17:25:56;8.50;99.90
30206;DHT22;17010;51.306;3.150;2023-02-01T17:28:23;8.60;99.90
30206;DHT22;17010;51.306;3.150;2023-02-01T17:30:49;8.50;99.90
30206;DHT22;17010;51.306;3.150;2023-02-01T17:33:28;8.50;99.90
30206;DHT22;17010;51.306;3.150;2023-02-01T17:35:55;8.50;99.90
30206;DHT22;17010;51.306;3.150;2023-02-01T17:38:23;8.40;99.90
30206;DHT22;17010;51.306;3.150;2023-02-01T17:40:49;8.50;99.90
30206;DHT22;17010;51.306;3.150;2023-02-01T17:43:23;8.50;99.90
30206;DHT22;17010;51.306;3.150;2023-02-01T17:45:52;8.50;99.90
30206;DHT22;17010;51.306;3.150;2023-02-01T17:48:20;8.50;99.90
30206;DHT22;17010;51.306;3.150;2023-02-01T17:50:49;8.50;99.90
30206;DHT22;17010;51.306;3.150;2023-02-01T17:53:17;8.50;99.90
30206;DHT22;17010;51.306;3.150;2023-02-01T17:55:45;8.50;99.90
30206;DHT22;17010;51.306;3.150;2023-02-01T17:58:12;8.50;99.90
30206;DHT22;17010;51.306;3.150;2023-02-01T18:00:40;8.50;99.90
30206;DHT22;17010;51.306;3.150;2023-02-01T18:03:06;8.50;99.90
30206;DHT22;17010;51.306;3.150;2023-02-01T18:05:41;8.60;99.90
30206;DHT22;17010;51.306;3.150;2023-02-01T18:08:08;8.60;99.90
30206;DHT22;17010;51.306;3.150;2023-02-01T18:10:34;8.60;99.90
30206;DHT22;17010;51.306;3.150;2023-02-01T18:13:02;8.60;99.90
30206;DHT22;17010;51.306;3.150;2023-02-01T18:15:29;8.60;99.90
30206;DHT22;17010;51.306;3.150;2023-02-01T18:17:56;8.50;99.90
30206;DHT22;17010;51.306;3.150;2023-02-01T18:20:23;8.50;99.90
30206;DHT22;17010;51.306;3.150;2023-02-01T18:22:51;8.60;99.90
30206;DHT22;17010;51.306;3.150;2023-02-01T18:27:48;8.60;99.90
30206;DHT22;17010;51.306;3.150;2023-02-01T18:30:15;8.60;99.90
30206;DHT22;17010;51.306;3.150;2023-02-01T18:32:42;8.60;99.90
30206;DHT22;17010;51.306;3.150;2023-02-01T18:35:19;8.60;99.90